createdAt,value
2018-08-23T00:01:34.829Z,2.20
2018-08-23T00:04:08.308Z,1.73
2018-08-23T00:06:40.641Z,1.80
2018-08-23T00:09:10.694Z,2.00
2018-08-23T00:11:45.742Z,1.60
2018-08-23T00:14:16.181Z,1.90
2018-08-23T00:16:47.615Z,2.13
2018-08-23T00:19:18.791Z,1.80
2018-08-23T00:21:49.516Z,1.93
2018-08-23T00:24:21.178Z,1.97
2018-08-23T00:26:59.732Z,1.60
2018-08-23T00:29:31.596Z,1.80
2018-08-23T00:32:09.625Z,1.97
2018-08-23T00:34:40.231Z,1.80
2018-08-23T00:37:13.062Z,2.03
2018-08-23T00:39:42.746Z,2.20
2018-08-23T00:42:12.931Z,1.80
2018-08-23T00:44:59.917Z,1.60
2018-08-23T00:47:31.645Z,1.90
2018-08-23T00:50:01.512Z,1.87
2018-08-23T00:52:44.845Z,2.20
2018-08-23T00:55:17.847Z,1.70
2018-08-23T00:57:48.050Z,1.90
2018-08-23T01:00:20.241Z,1.93
2018-08-23T01:02:51.932Z,1.73
2018-08-23T01:05:26.733Z,1.77
2018-08-23T01:07:56.561Z,1.87
2018-08-23T01:10:26.305Z,2.23
2018-08-23T01:13:00.029Z,2.00
2018-08-23T01:15:31.720Z,1.87
2018-08-23T01:18:13.029Z,1.60
2018-08-23T01:20:44.938Z,2.10
2018-08-23T01:23:14.489Z,1.70
2018-08-23T01:25:45.372Z,2.17
2018-08-23T01:28:15.222Z,1.80
2018-08-23T01:30:45.520Z,1.60
2018-08-23T01:33:18.219Z,1.63
2018-08-23T01:35:48.981Z,2.00
2018-08-23T01:38:18.856Z,2.20
2018-08-23T01:40:49.163Z,1.87
2018-08-23T01:43:18.906Z,1.70
2018-08-23T01:45:49.056Z,1.80
2018-08-23T01:48:19.512Z,1.93
2018-08-23T01:50:49.127Z,2.00
2018-08-23T01:53:20.991Z,1.80
2018-08-23T01:55:51.230Z,2.07
2018-08-23T01:58:21.004Z,1.93
2018-08-23T02:01:26.312Z,1.70
2018-08-23T02:03:56.023Z,1.77
2018-08-23T02:06:31.084Z,1.73
2018-08-23T02:09:01.135Z,2.03
2018-08-23T02:11:31.304Z,1.93
2018-08-23T02:14:02.014Z,2.10
2018-08-23T02:16:42.827Z,1.80
2018-08-23T02:19:12.378Z,1.70
2018-08-23T02:21:42.083Z,1.50
2018-08-23T02:24:12.341Z,2.00
2018-08-23T02:26:44.770Z,1.77
2018-08-23T02:29:15.450Z,1.83
2018-08-23T02:31:45.593Z,1.83
2018-08-23T02:34:16.435Z,1.90
2018-08-23T02:36:46.104Z,2.07
2018-08-23T02:39:16.211Z,1.80
2018-08-23T02:41:46.753Z,2.03
2018-08-23T02:44:17.010Z,2.00
2018-08-23T02:46:46.695Z,2.10
2018-08-23T02:49:17.075Z,1.73
2018-08-23T02:51:52.117Z,2.07
2018-08-23T02:54:21.846Z,2.20
2018-08-23T02:56:57.112Z,1.67
2018-08-23T02:59:27.912Z,1.73
2018-08-23T03:01:58.153Z,2.07
2018-08-23T03:04:29.270Z,2.00
2018-08-23T03:07:05.252Z,1.73
2018-08-23T03:09:43.141Z,1.90
2018-08-23T03:12:16.515Z,1.80
2018-08-23T03:14:46.165Z,1.70
2018-08-23T03:17:27.127Z,1.70
2018-08-23T03:20:00.304Z,1.90
2018-08-23T03:22:30.662Z,1.80
2018-08-23T03:25:05.565Z,1.70
2018-08-23T03:27:35.241Z,1.77
2018-08-23T03:30:06.017Z,2.17
2018-08-23T03:32:35.613Z,2.03
2018-08-23T03:35:05.868Z,1.77
2018-08-23T03:37:36.176Z,2.17
2018-08-23T03:40:06.365Z,2.27
2018-08-23T03:42:36.117Z,2.10
2018-08-23T03:45:10.310Z,1.70
2018-08-23T03:47:45.840Z,1.90
2018-08-23T03:50:15.464Z,1.87
2018-08-23T03:52:55.007Z,1.80
2018-08-23T03:55:25.897Z,1.70
2018-08-23T03:58:02.351Z,2.00
2018-08-23T04:00:38.095Z,1.93
2018-08-23T04:03:24.599Z,1.83
2018-08-23T04:05:55.865Z,2.00
2018-08-23T04:08:26.116Z,2.10
2018-08-23T04:10:55.668Z,1.93
2018-08-23T04:13:25.730Z,1.90
2018-08-23T04:15:55.921Z,1.83
2018-08-23T04:18:26.049Z,1.80
2018-08-23T04:20:57.706Z,2.00
2018-08-23T04:23:27.764Z,2.00
2018-08-23T04:25:57.284Z,1.90
2018-08-23T04:28:26.806Z,2.10
2018-08-23T04:30:57.083Z,1.80
2018-08-23T04:33:26.616Z,1.90
2018-08-23T04:35:56.171Z,1.90
2018-08-23T04:38:25.725Z,1.80
2018-08-23T04:41:03.446Z,2.10
2018-08-23T04:43:32.962Z,1.60
2018-08-23T04:46:03.931Z,2.00
2018-08-23T04:48:33.447Z,2.07
2018-08-23T04:51:03.001Z,1.80
2018-08-23T04:53:32.551Z,2.10
2018-08-23T04:56:02.080Z,2.13
2018-08-23T04:58:31.602Z,1.97
2018-08-23T05:01:01.136Z,1.87
2018-08-23T05:03:30.651Z,1.97
2018-08-23T05:06:00.200Z,1.93
2018-08-23T05:08:29.670Z,1.90
2018-08-23T05:10:59.229Z,2.03
2018-08-23T05:13:28.809Z,1.80
2018-08-23T05:15:58.374Z,2.10
2018-08-23T05:18:27.915Z,2.10
2018-08-23T05:20:57.435Z,1.80
2018-08-23T05:23:26.966Z,1.80
2018-08-23T05:25:58.392Z,2.00
2018-08-23T05:28:27.970Z,2.30
2018-08-23T05:30:57.624Z,1.70
2018-08-23T05:33:27.120Z,2.00
2018-08-23T05:35:57.052Z,2.20
2018-08-23T05:38:26.580Z,2.00
2018-08-23T05:41:01.491Z,2.20
2018-08-23T05:43:31.155Z,2.00
2018-08-23T05:46:01.661Z,1.97
2018-08-23T05:48:31.544Z,2.50
2018-08-23T05:51:04.185Z,2.10
2018-08-23T05:53:34.397Z,2.43
2018-08-23T05:56:03.939Z,2.30
2018-08-23T05:58:33.774Z,2.47
2018-08-23T06:01:03.577Z,2.00
2018-08-23T06:03:33.112Z,2.17
2018-08-23T06:06:02.629Z,2.30
2018-08-23T06:08:32.148Z,2.03
2018-08-23T06:11:06.995Z,2.30
2018-08-23T06:13:36.529Z,2.50
2018-08-23T06:16:06.199Z,2.50
2018-08-23T06:18:35.701Z,2.73
2018-08-23T06:21:05.309Z,2.30
2018-08-23T06:23:57.199Z,2.50
2018-08-23T06:27:03.892Z,2.30
2018-08-23T06:29:34.476Z,2.57
2018-08-23T06:32:10.148Z,2.87
2018-08-23T06:34:56.465Z,2.60
2018-08-23T06:37:25.950Z,2.70
2018-08-23T06:39:55.489Z,2.80
2018-08-23T06:42:41.437Z,2.90
2018-08-23T06:45:10.979Z,2.57
2018-08-23T06:47:42.353Z,2.70
2018-08-23T06:50:11.969Z,2.70
2018-08-23T06:52:46.801Z,3.20
2018-08-23T06:55:20.518Z,3.20
2018-08-23T06:57:53.609Z,2.90
2018-08-23T07:00:26.331Z,2.67
2018-08-23T07:02:55.961Z,3.50
2018-08-23T07:05:25.458Z,3.37
2018-08-23T07:07:54.977Z,3.30
2018-08-23T07:10:24.551Z,3.73
2018-08-23T07:12:56.632Z,3.00
2018-08-23T07:15:26.375Z,3.83
2018-08-23T07:17:55.913Z,4.23
2018-08-23T07:20:25.399Z,3.73
2018-08-23T07:22:54.925Z,3.70
2018-08-23T07:25:24.428Z,3.87
2018-08-23T07:27:53.970Z,3.90
2018-08-23T07:30:23.555Z,3.87
2018-08-23T07:32:53.093Z,3.93
2018-08-23T07:35:22.593Z,4.43
2018-08-23T07:37:53.432Z,3.90
2018-08-23T07:40:24.223Z,4.83
2018-08-23T07:42:55.175Z,4.13
2018-08-23T07:45:24.811Z,4.30
2018-08-23T07:47:55.413Z,4.73
2018-08-23T07:50:24.931Z,4.10
2018-08-23T07:52:55.069Z,4.20
2018-08-23T07:55:24.842Z,4.20
2018-08-23T07:57:54.376Z,4.70
2018-08-23T08:00:33.737Z,4.47
2018-08-23T08:03:03.229Z,4.67
2018-08-23T08:05:34.706Z,4.63
2018-08-23T08:08:04.327Z,4.10
2018-08-23T08:10:35.849Z,4.40
2018-08-23T08:13:05.469Z,3.97
2018-08-23T08:15:35.045Z,3.83
2018-08-23T08:18:18.009Z,3.97
2018-08-23T08:20:54.340Z,3.90
2018-08-23T08:23:23.800Z,4.03
2018-08-23T08:25:53.327Z,4.37
2018-08-23T08:28:22.849Z,3.50
2018-08-23T08:30:58.385Z,3.70
2018-08-23T08:33:33.395Z,4.00
2018-08-23T08:36:03.823Z,4.67
2018-08-23T08:38:33.963Z,4.10
2018-08-23T08:41:03.495Z,4.03
2018-08-23T08:43:35.302Z,3.87
2018-08-23T08:46:04.818Z,4.20
2018-08-23T08:48:35.180Z,4.43
2018-08-23T08:51:20.939Z,4.20
2018-08-23T08:53:50.772Z,3.73
2018-08-23T08:56:31.177Z,3.47
2018-08-23T08:59:00.738Z,3.67
2018-08-23T09:01:30.245Z,3.47
2018-08-23T09:03:59.840Z,4.30
2018-08-23T09:06:34.673Z,4.00
2018-08-23T09:09:42.456Z,3.40
2018-08-23T09:12:12.867Z,3.73
2018-08-23T09:14:43.301Z,3.80
2018-08-23T09:17:29.368Z,3.47
2018-08-23T09:20:05.925Z,3.60
2018-08-23T09:22:46.667Z,3.73
2018-08-23T09:25:23.140Z,3.57
2018-08-23T09:27:52.831Z,3.70
2018-08-23T09:30:29.477Z,3.80
2018-08-23T09:33:03.306Z,3.77
2018-08-23T09:35:33.767Z,3.80
2018-08-23T09:38:12.780Z,3.70
2018-08-23T09:40:42.386Z,4.20
2018-08-23T09:43:11.930Z,3.40
2018-08-23T09:45:41.501Z,3.87
2018-08-23T09:48:11.102Z,3.60
2018-08-23T09:50:40.656Z,3.40
2018-08-23T09:53:22.324Z,3.90
2018-08-23T09:55:52.362Z,3.43
2018-08-23T09:58:27.113Z,3.80
2018-08-23T10:01:02.052Z,3.60
2018-08-23T10:03:36.800Z,3.27
2018-08-23T10:06:11.633Z,3.20
2018-08-23T10:08:46.228Z,3.23
2018-08-23T10:11:21.263Z,3.17
2018-08-23T10:13:55.934Z,3.40
2018-08-23T10:16:30.726Z,3.07
2018-08-23T10:19:04.441Z,2.70
2018-08-23T10:21:39.295Z,3.10
2018-08-23T10:24:16.329Z,2.73
2018-08-23T10:26:45.985Z,2.90
2018-08-23T10:29:15.627Z,2.90
2018-08-23T10:31:45.186Z,2.80
2018-08-23T10:34:14.692Z,2.67
2018-08-23T10:36:44.252Z,2.83
2018-08-23T10:39:14.125Z,2.70
2018-08-23T10:41:43.621Z,2.13
2018-08-23T10:44:13.222Z,2.77
2018-08-23T10:46:47.989Z,1.97
2018-08-23T10:49:17.593Z,2.30
2018-08-23T10:51:47.134Z,2.10
2018-08-23T10:54:16.629Z,2.20
2018-08-23T10:56:46.241Z,2.10
2018-08-23T10:59:15.794Z,2.13
2018-08-23T11:01:45.395Z,2.03
2018-08-23T11:04:14.979Z,1.87
2018-08-23T11:06:49.953Z,2.30
2018-08-23T11:09:24.663Z,2.00
2018-08-23T11:11:54.212Z,2.37
2018-08-23T11:14:28.945Z,1.80
2018-08-23T11:17:03.848Z,1.90
2018-08-23T11:19:38.335Z,2.20
2018-08-23T11:22:07.985Z,2.20
2018-08-23T11:24:37.535Z,2.03
2018-08-23T11:27:10.664Z,2.40
2018-08-23T11:29:40.220Z,2.50
2018-08-23T11:32:10.123Z,2.60
2018-08-23T11:34:39.616Z,2.37
2018-08-23T11:37:09.143Z,2.43
2018-08-23T11:39:38.652Z,2.20
2018-08-23T11:42:08.197Z,2.23
2018-08-23T11:44:37.710Z,2.43
2018-08-23T11:47:07.285Z,2.20
2018-08-23T11:49:36.920Z,2.83
2018-08-23T11:52:06.428Z,2.60
2018-08-23T11:54:36.034Z,2.60
2018-08-23T11:57:05.592Z,2.87
2018-08-23T11:59:35.948Z,2.87
2018-08-23T12:02:05.975Z,2.87
2018-08-23T12:04:35.499Z,3.30
2018-08-23T12:07:05.067Z,3.20
2018-08-23T12:09:34.620Z,3.47
2018-08-23T12:12:04.977Z,3.67
2018-08-23T12:14:34.519Z,4.00
2018-08-23T12:17:04.037Z,4.17
2018-08-23T12:19:33.544Z,3.83
2018-08-23T12:22:03.089Z,4.37
2018-08-23T12:24:32.683Z,4.23
2018-08-23T12:27:02.202Z,4.00
2018-08-23T12:29:31.683Z,4.10
2018-08-23T12:32:01.187Z,4.03
2018-08-23T12:34:33.575Z,3.90
2018-08-23T12:37:08.331Z,4.43
2018-08-23T12:39:43.329Z,4.00
2018-08-23T12:42:49.995Z,4.00
2018-08-23T12:45:19.597Z,3.90
2018-08-23T12:47:49.149Z,4.10
2018-08-23T12:50:18.679Z,3.80
2018-08-23T12:52:48.214Z,3.83
2018-08-23T12:55:17.674Z,4.20
2018-08-23T12:57:47.214Z,4.20
2018-08-23T13:00:16.773Z,3.83
2018-08-23T13:02:46.474Z,4.10
2018-08-23T13:05:15.892Z,4.03
2018-08-23T13:07:45.334Z,3.67
2018-08-23T13:10:14.911Z,3.43
2018-08-23T13:12:44.471Z,3.73
2018-08-23T13:15:13.979Z,3.40
2018-08-23T13:17:43.545Z,2.97
2018-08-23T13:20:32.145Z,3.77
2018-08-23T13:23:01.736Z,3.40
2018-08-23T13:25:31.280Z,3.90
2018-08-23T13:28:00.810Z,3.30
2018-08-23T13:30:30.355Z,3.17
2018-08-23T13:32:59.931Z,3.37
2018-08-23T13:35:29.564Z,3.10
2018-08-23T13:37:59.052Z,3.30
2018-08-23T13:40:28.562Z,3.37
2018-08-23T13:42:58.179Z,3.03
2018-08-23T13:45:27.991Z,3.20
2018-08-23T13:47:57.488Z,3.20
2018-08-23T13:50:27.017Z,3.27
2018-08-23T13:52:56.535Z,3.20
2018-08-23T13:55:26.048Z,3.20
2018-08-23T13:57:55.730Z,3.37
2018-08-23T14:00:40.860Z,3.13
2018-08-23T14:03:11.273Z,3.30
2018-08-23T14:05:41.594Z,3.20
2018-08-23T14:08:11.142Z,3.10
2018-08-23T14:10:40.723Z,3.03
2018-08-23T14:13:10.223Z,3.50
2018-08-23T14:15:44.929Z,3.33
2018-08-23T14:18:14.520Z,3.07
2018-08-23T14:20:44.127Z,3.43
2018-08-23T14:23:13.694Z,3.20
2018-08-23T14:25:43.156Z,3.07
2018-08-23T14:28:12.707Z,3.03
2018-08-23T14:30:42.316Z,2.87
2018-08-23T14:33:11.915Z,3.37
2018-08-23T14:35:41.370Z,3.17
2018-08-23T14:38:10.912Z,3.30
2018-08-23T14:40:40.512Z,3.20
2018-08-23T14:43:10.087Z,3.00
2018-08-23T14:45:39.612Z,3.00
2018-08-23T14:48:20.862Z,3.17
2018-08-23T14:50:52.757Z,3.30
2018-08-23T14:53:27.633Z,2.80
2018-08-23T14:56:02.515Z,2.80
2018-08-23T14:58:32.297Z,2.93
2018-08-23T15:01:01.949Z,3.00
2018-08-23T15:03:31.724Z,3.00
2018-08-23T15:06:01.243Z,3.37
2018-08-23T15:08:30.753Z,3.10
2018-08-23T15:11:00.260Z,3.10
2018-08-23T15:13:29.786Z,2.77
2018-08-23T15:15:59.396Z,2.67
2018-08-23T15:18:28.999Z,3.07
2018-08-23T15:20:58.625Z,2.73
2018-08-23T15:23:28.117Z,2.63
2018-08-23T15:25:57.694Z,3.00
2018-08-23T15:28:27.449Z,2.93
2018-08-23T15:30:56.962Z,2.60
2018-08-23T15:33:26.444Z,2.70
2018-08-23T15:35:56.016Z,2.60
2018-08-23T15:38:25.562Z,2.73
2018-08-23T15:40:55.165Z,2.83
2018-08-23T15:43:24.666Z,2.50
2018-08-23T15:45:54.171Z,2.60
2018-08-23T15:48:23.658Z,2.50
2018-08-23T15:50:53.164Z,2.80
2018-08-23T15:53:22.762Z,2.67
2018-08-23T15:55:52.323Z,2.80
2018-08-23T15:58:21.869Z,2.50
2018-08-23T16:00:51.457Z,2.67
2018-08-23T16:03:20.982Z,2.83
2018-08-23T16:05:50.486Z,2.73
2018-08-23T16:08:20.016Z,2.53
2018-08-23T16:10:49.493Z,2.60
2018-08-23T16:13:19.007Z,2.97
2018-08-23T16:15:52.735Z,2.73
2018-08-23T16:18:27.537Z,2.80
2018-08-23T16:21:00.437Z,2.67
2018-08-23T16:23:29.971Z,2.67
2018-08-23T16:25:59.514Z,2.60
2018-08-23T16:28:29.025Z,2.50
2018-08-23T16:30:59.266Z,3.00
2018-08-23T16:33:29.587Z,2.83
2018-08-23T16:35:59.153Z,3.10
2018-08-23T16:38:29.030Z,2.80
2018-08-23T16:40:58.727Z,2.97
2018-08-23T16:43:29.107Z,3.00
2018-08-23T16:45:58.635Z,2.80
2018-08-23T16:48:28.257Z,2.63
2018-08-23T16:50:57.845Z,3.30
2018-08-23T16:53:29.065Z,2.83
2018-08-23T16:55:59.793Z,3.27
2018-08-23T16:58:29.661Z,2.87
2018-08-23T17:01:00.486Z,2.90
2018-08-23T17:03:30.891Z,3.13
2018-08-23T17:06:01.181Z,2.93
2018-08-23T17:08:31.531Z,2.90
2018-08-23T17:11:02.182Z,2.90
2018-08-23T17:13:38.011Z,3.20
2018-08-23T17:16:13.615Z,3.27
2018-08-23T17:18:43.328Z,2.93
2018-08-23T17:21:13.048Z,2.63
2018-08-23T17:23:42.811Z,3.00
2018-08-23T17:26:12.991Z,3.10
2018-08-23T17:28:42.657Z,2.90
2018-08-23T17:31:12.348Z,3.23
2018-08-23T17:33:42.189Z,3.20
2018-08-23T17:36:14.327Z,2.90
2018-08-23T17:38:43.937Z,2.80
2018-08-23T17:41:13.564Z,2.70
2018-08-23T17:43:43.300Z,2.90
2018-08-23T17:46:13.594Z,3.17
2018-08-23T17:48:43.173Z,2.90
2018-08-23T17:51:13.136Z,2.70
2018-08-23T17:53:43.016Z,3.00
2018-08-23T17:56:13.901Z,2.80
2018-08-23T17:58:44.364Z,2.83
2018-08-23T18:01:14.045Z,2.90
2018-08-23T18:03:43.551Z,2.90
2018-08-23T18:06:13.157Z,2.90
2018-08-23T18:08:42.817Z,2.87
2018-08-23T18:11:13.067Z,2.77
2018-08-23T18:13:42.829Z,3.00
2018-08-23T18:16:18.406Z,3.07
2018-08-23T18:18:48.146Z,2.70
2018-08-23T18:21:18.555Z,3.20
2018-08-23T18:23:48.932Z,2.73
2018-08-23T18:26:18.433Z,3.10
2018-08-23T18:28:47.993Z,3.10
2018-08-23T18:31:17.691Z,3.40
2018-08-23T18:33:47.934Z,3.10
2018-08-23T18:36:18.248Z,2.90
2018-08-23T18:38:48.345Z,3.13
2018-08-23T18:41:19.325Z,2.87
2018-08-23T18:43:48.881Z,3.17
2018-08-23T18:46:19.268Z,2.90
2018-08-23T18:48:50.055Z,3.30
2018-08-23T18:51:19.569Z,2.97
2018-08-23T18:53:50.558Z,3.20
2018-08-23T18:56:21.047Z,3.70
2018-08-23T18:58:50.639Z,2.93
2018-08-23T19:01:20.296Z,3.07
2018-08-23T19:03:51.305Z,2.90
2018-08-23T19:06:25.973Z,3.00
2018-08-23T19:08:55.783Z,3.13
2018-08-23T19:11:25.648Z,3.07
2018-08-23T19:13:55.277Z,3.03
2018-08-23T19:16:30.170Z,2.80
2018-08-23T19:19:00.071Z,2.67
2018-08-23T19:21:29.776Z,3.13
2018-08-23T19:23:59.244Z,3.23
2018-08-23T19:26:29.725Z,3.17
2018-08-23T19:28:59.911Z,2.90
2018-08-23T19:31:30.347Z,3.23
2018-08-23T19:34:00.351Z,2.97
2018-08-23T19:36:30.747Z,3.00
2018-08-23T19:39:01.808Z,2.77
2018-08-23T19:41:33.126Z,2.70
2018-08-23T19:44:03.519Z,3.00
2018-08-23T19:46:39.825Z,3.37
2018-08-23T19:49:14.768Z,2.83
2018-08-23T19:51:44.970Z,3.23
2018-08-23T19:54:15.190Z,2.90
2018-08-23T19:56:45.530Z,2.97
2018-08-23T19:59:15.901Z,2.67
2018-08-23T20:01:45.559Z,2.77
2018-08-23T20:04:15.255Z,2.50
2018-08-23T20:06:45.005Z,2.83
2018-08-23T20:09:15.170Z,3.10
2018-08-23T20:11:44.847Z,2.70
2018-08-23T20:14:15.547Z,2.53
2018-08-23T20:16:45.329Z,2.67
2018-08-23T20:19:15.089Z,2.53
2018-08-23T20:21:44.693Z,2.60
2018-08-23T20:24:14.157Z,2.63
2018-08-23T20:26:43.642Z,2.47
2018-08-23T20:29:14.705Z,2.47
2018-08-23T20:31:44.497Z,2.50
2018-08-23T20:34:14.827Z,2.70
2018-08-23T20:36:44.440Z,2.63
2018-08-23T20:39:15.528Z,2.60
2018-08-23T20:41:46.318Z,2.57
2018-08-23T20:44:16.091Z,2.70
2018-08-23T20:46:46.579Z,2.33
2018-08-23T20:49:17.457Z,2.70
2018-08-23T20:51:47.227Z,2.60
2018-08-23T20:54:17.148Z,2.70
2018-08-23T20:56:47.383Z,2.93
2018-08-23T20:59:17.139Z,2.40
2018-08-23T21:01:46.821Z,2.70
2018-08-23T21:04:17.837Z,2.50
2018-08-23T21:06:47.646Z,2.40
2018-08-23T21:09:17.857Z,2.80
2018-08-23T21:11:48.209Z,2.87
2018-08-23T21:14:17.975Z,2.97
2018-08-23T21:16:48.181Z,2.47
2018-08-23T21:19:17.648Z,2.67
2018-08-23T21:21:47.163Z,2.50
2018-08-23T21:24:17.468Z,2.47
2018-08-23T21:26:47.266Z,2.60
2018-08-23T21:29:17.003Z,2.57
2018-08-23T21:31:46.644Z,2.60
2018-08-23T21:34:16.987Z,2.50
2018-08-23T21:36:47.945Z,2.40
2018-08-23T21:39:17.528Z,2.43
2018-08-23T21:41:47.162Z,2.57
2018-08-23T21:44:16.679Z,2.70
2018-08-23T21:46:46.377Z,2.53
2018-08-23T21:49:16.535Z,2.33
2018-08-23T21:51:46.146Z,2.30
2018-08-23T21:54:17.209Z,2.60
2018-08-23T21:56:48.181Z,2.47
2018-08-23T21:59:17.862Z,2.30
2018-08-23T22:01:48.014Z,2.30
2018-08-23T22:04:17.532Z,2.20
2018-08-23T22:06:47.790Z,2.20
2018-08-23T22:09:18.127Z,2.40
2018-08-23T22:11:49.187Z,2.27
2018-08-23T22:14:19.299Z,2.87
2018-08-23T22:16:48.951Z,2.80
2018-08-23T22:19:18.676Z,2.70
2018-08-23T22:21:48.251Z,2.20
2018-08-23T22:24:17.882Z,2.20
2018-08-23T22:26:47.541Z,2.27
2018-08-23T22:29:17.290Z,2.87
2018-08-23T22:31:47.386Z,2.43
2018-08-23T22:34:18.537Z,2.77
2018-08-23T22:36:49.568Z,2.37
2018-08-23T22:39:19.225Z,2.27
2018-08-23T22:41:48.981Z,2.37
2018-08-23T22:44:19.216Z,2.27
2018-08-23T22:46:48.646Z,2.50
2018-08-23T22:49:18.386Z,2.37
2018-08-23T22:51:48.067Z,2.37
2018-08-23T22:54:17.577Z,2.30
2018-08-23T22:56:48.116Z,2.20
2018-08-23T22:59:17.741Z,2.40
2018-08-23T23:01:47.365Z,2.23
2018-08-23T23:04:33.281Z,2.40
2018-08-23T23:07:07.004Z,2.60
2018-08-23T23:09:36.525Z,2.20
2018-08-23T23:12:06.302Z,2.43
2018-08-23T23:14:35.850Z,2.27
2018-08-23T23:17:07.728Z,3.10
2018-08-23T23:19:37.257Z,2.20
2018-08-23T23:22:07.689Z,2.63
2018-08-23T23:24:42.493Z,2.40
2018-08-23T23:27:11.983Z,2.47
2018-08-23T23:29:41.424Z,2.40
2018-08-23T23:32:10.889Z,2.20
2018-08-23T23:34:40.371Z,2.57
2018-08-23T23:37:09.885Z,2.27
2018-08-23T23:39:39.368Z,2.60
2018-08-23T23:42:08.907Z,2.60
2018-08-23T23:44:38.804Z,2.40
2018-08-23T23:47:08.229Z,2.20
2018-08-23T23:49:37.700Z,2.30
2018-08-23T23:52:07.297Z,2.33
2018-08-23T23:54:36.822Z,2.03
2018-08-23T23:57:06.577Z,2.43
2018-08-23T23:59:36.092Z,2.30
